Terminal Aerodrome Forecast
Issued by NWS Binghamton, NY

Home | Current Version | Previous Version | Text Only | Print | Product List | Glossary On
Versions: 1 2 3 4 5 6 7 8 9 10 11 12 13 14 15 16 17 18 19 20
000
FTUS41 KBGM 292300
TAFBGM
TAF
KBGM 292339Z 3000/3024 18010KT P6SM BKN150
     FM300600 19012KT P6SM OVC040
      TEMPO 3006/3010 3SM -SHSN OVC020
     FM301000 21012G17KT 5SM -SHSNRA OVC015
     FM301500 26015G27KT P6SM -SHRA OVC025=

USA.gov is the U.S. government's official web portal to all federal, state and local government web resources and services.